createdAt,value
2018-06-29T00:00:14.361Z,26.35
2018-06-29T00:02:45.349Z,26.37
2018-06-29T00:05:16.361Z,26.37
2018-06-29T00:07:48.766Z,26.19
2018-06-29T00:10:20.576Z,26.06
2018-06-29T00:12:50.015Z,26.25
2018-06-29T00:15:22.427Z,26.17
2018-06-29T00:17:51.857Z,26.19
2018-06-29T00:20:21.344Z,26.20
2018-06-29T00:22:50.784Z,26.06
2018-06-29T00:25:23.172Z,26.02
2018-06-29T00:27:52.614Z,26.04
2018-06-29T00:30:24.418Z,25.90
2018-06-29T00:32:56.856Z,26.06
2018-06-29T00:35:26.321Z,25.99
2018-06-29T00:37:58.725Z,26.10
2018-06-29T00:40:28.929Z,25.99
2018-06-29T00:43:01.351Z,26.04
2018-06-29T00:45:33.805Z,26.03
2018-06-29T00:48:04.848Z,25.94
2018-06-29T00:50:35.072Z,25.88
2018-06-29T00:53:04.537Z,25.89
2018-06-29T00:55:36.972Z,25.86
2018-06-29T00:58:06.450Z,25.82
2018-06-29T01:00:38.868Z,25.88
2018-06-29T01:03:08.372Z,25.93
2018-06-29T01:05:38.613Z,25.81
2018-06-29T01:08:11.078Z,25.85
2018-06-29T01:10:40.521Z,25.87
2018-06-29T01:13:12.950Z,25.90
2018-06-29T01:15:42.431Z,25.81
2018-06-29T01:18:14.204Z,25.80
2018-06-29T01:20:46.620Z,25.69
2018-06-29T01:23:19.010Z,25.79
2018-06-29T01:25:50.848Z,25.69
2018-06-29T01:28:23.312Z,25.75
2018-06-29T01:30:52.755Z,25.73
2018-06-29T01:33:25.196Z,25.63
2018-06-29T01:35:54.629Z,25.65
2018-06-29T01:38:24.942Z,25.58
2018-06-29T01:40:54.501Z,25.53
2018-06-29T01:43:24.763Z,25.61
2018-06-29T01:45:54.189Z,25.58
2018-06-29T01:48:22.903Z,25.55
2018-06-29T01:50:52.349Z,25.49
2018-06-29T01:53:24.749Z,25.47
2018-06-29T01:55:54.982Z,25.47
2018-06-29T01:58:24.437Z,25.53
2018-06-29T02:00:53.893Z,25.49
2018-06-29T02:03:26.273Z,25.43
2018-06-29T02:05:58.657Z,25.34
2018-06-29T02:08:28.289Z,25.29
2018-06-29T02:11:00.683Z,25.30
2018-06-29T02:13:30.953Z,25.28
2018-06-29T02:16:02.856Z,25.24
2018-06-29T02:18:32.304Z,25.32
2018-06-29T02:21:02.550Z,25.27
2018-06-29T02:23:31.979Z,25.09
2018-06-29T02:26:02.981Z,25.27
2018-06-29T02:28:35.488Z,24.94
2018-06-29T02:31:05.720Z,25.06
2018-06-29T02:33:35.953Z,24.83
2018-06-29T02:36:05.458Z,25.03
2018-06-29T02:38:37.826Z,24.99
2018-06-29T02:41:07.300Z,25.01
2018-06-29T02:43:36.754Z,24.91
2018-06-29T02:46:06.229Z,24.93
2018-06-29T02:48:35.697Z,24.99
2018-06-29T02:51:05.133Z,25.01
2018-06-29T02:53:37.514Z,24.88
2018-06-29T02:56:07.054Z,25.08
2018-06-29T02:58:39.445Z,25.01
2018-06-29T03:01:12.141Z,24.92
2018-06-29T03:03:41.639Z,24.87
2018-06-29T03:06:14.096Z,24.87
2018-06-29T03:08:43.571Z,24.83
2018-06-29T03:11:13.025Z,24.96
2018-06-29T03:13:43.260Z,24.84
2018-06-29T03:16:15.221Z,24.86
2018-06-29T03:18:46.213Z,24.62
2018-06-29T03:21:15.669Z,24.68
2018-06-29T03:23:48.064Z,24.70
2018-06-29T03:26:19.192Z,24.82
2018-06-29T03:28:51.964Z,24.68
2018-06-29T03:31:24.432Z,24.63
2018-06-29T03:33:55.479Z,24.40
2018-06-29T03:36:26.476Z,24.69
2018-06-29T03:38:55.936Z,24.58
2018-06-29T03:41:25.431Z,24.49
2018-06-29T03:43:54.869Z,24.56
2018-06-29T03:46:24.373Z,24.32
2018-06-29T03:48:53.881Z,24.35
2018-06-29T03:51:38.476Z,24.27
2018-06-29T03:54:07.908Z,24.31
2018-06-29T03:56:40.331Z,24.48
2018-06-29T03:59:12.715Z,24.20
2018-06-29T04:01:42.164Z,24.15
2018-06-29T04:04:14.612Z,24.20
2018-06-29T04:06:44.038Z,24.22
2018-06-29T04:09:16.460Z,24.10
2018-06-29T04:11:48.872Z,24.29
2018-06-29T04:14:18.404Z,24.35
2018-06-29T04:16:50.913Z,24.39
2018-06-29T04:19:21.494Z,24.16
2018-06-29T04:21:50.943Z,24.20
2018-06-29T04:24:22.215Z,24.20
2018-06-29T04:26:53.972Z,24.17
2018-06-29T04:29:26.477Z,24.36
2018-06-29T04:31:55.932Z,24.35
2018-06-29T04:34:28.352Z,24.19
2018-06-29T04:36:57.827Z,24.32
2018-06-29T04:39:30.211Z,24.32
2018-06-29T04:42:02.673Z,24.34
2018-06-29T04:44:32.192Z,24.40
2018-06-29T04:47:02.570Z,24.32
2018-06-29T04:49:32.019Z,24.30
2018-06-29T04:52:02.370Z,24.31
2018-06-29T04:54:31.809Z,24.29
2018-06-29T04:57:04.226Z,24.30
2018-06-29T04:59:33.688Z,24.26
2018-06-29T05:02:06.145Z,24.26
2018-06-29T05:04:38.557Z,24.39
2018-06-29T05:07:10.940Z,24.25
2018-06-29T05:09:42.752Z,24.26
2018-06-29T05:12:12.198Z,24.15
2018-06-29T05:14:41.867Z,24.30
2018-06-29T05:17:12.103Z,24.35
2018-06-29T05:19:42.332Z,24.26
2018-06-29T05:22:14.125Z,24.37
2018-06-29T05:24:43.580Z,24.30
2018-06-29T05:27:13.854Z,24.33
2018-06-29T05:29:43.329Z,24.36
2018-06-29T05:32:12.817Z,24.40
2018-06-29T05:34:43.034Z,24.41
2018-06-29T05:37:14.856Z,24.41
2018-06-29T05:39:44.329Z,24.44
2018-06-29T05:42:16.731Z,24.37
2018-06-29T05:44:49.141Z,24.42
2018-06-29T05:47:19.428Z,24.41
2018-06-29T05:49:51.796Z,24.37
2018-06-29T05:52:22.051Z,24.36
2018-06-29T05:54:53.048Z,24.54
2018-06-29T05:57:22.565Z,24.53
2018-06-29T05:59:54.286Z,24.49
2018-06-29T06:02:26.989Z,24.79
2018-06-29T06:04:56.448Z,24.77
2018-06-29T06:07:29.018Z,24.60
2018-06-29T06:09:58.470Z,24.44
2018-06-29T06:12:30.904Z,24.71
2018-06-29T06:15:02.702Z,24.54
2018-06-29T06:17:32.913Z,24.63
2018-06-29T06:20:07.420Z,24.74
2018-06-29T06:22:39.792Z,24.70
2018-06-29T06:25:10.041Z,24.68
2018-06-29T06:27:41.033Z,24.70
2018-06-29T06:30:10.513Z,24.78
2018-06-29T06:32:42.924Z,24.71
2018-06-29T06:35:15.345Z,24.73
2018-06-29T06:37:47.787Z,24.76
2018-06-29T06:40:20.184Z,24.86
2018-06-29T06:42:52.560Z,24.89
2018-06-29T06:45:22.872Z,24.77
2018-06-29T06:47:53.841Z,24.76
2018-06-29T06:50:23.346Z,24.72
2018-06-29T06:52:53.829Z,24.60
2018-06-29T06:55:24.040Z,24.63
2018-06-29T06:57:56.462Z,24.60
2018-06-29T07:00:28.636Z,24.63
2018-06-29T07:02:58.989Z,24.60
2018-06-29T07:05:29.974Z,24.63
2018-06-29T07:07:59.420Z,24.72
2018-06-29T07:10:28.903Z,24.62
2018-06-29T07:12:59.919Z,24.78
2018-06-29T07:15:30.969Z,24.75
2018-06-29T07:18:00.434Z,24.79
2018-06-29T07:20:29.909Z,24.80
2018-06-29T07:23:00.150Z,24.78
2018-06-29T07:25:30.650Z,24.87
2018-06-29T07:28:00.872Z,24.94
2018-06-29T07:30:31.872Z,24.88
2018-06-29T07:33:02.167Z,24.94
2018-06-29T07:35:31.688Z,24.97
2018-06-29T07:38:02.130Z,24.90
2018-06-29T07:40:31.585Z,24.97
2018-06-29T07:43:03.996Z,24.96
2018-06-29T07:45:34.224Z,24.92
2018-06-29T07:48:06.014Z,24.98
2018-06-29T07:50:37.352Z,25.03
2018-06-29T07:53:06.786Z,25.10
2018-06-29T07:55:39.624Z,24.96
2018-06-29T07:58:09.811Z,24.95
2018-06-29T08:00:42.236Z,25.16
2018-06-29T08:03:11.659Z,25.20
2018-06-29T08:05:44.124Z,25.27
2018-06-29T08:08:14.226Z,25.25
2018-06-29T08:10:44.533Z,25.24
2018-06-29T08:13:19.086Z,25.33
2018-06-29T08:15:48.527Z,25.32
2018-06-29T08:18:19.532Z,25.32
2018-06-29T08:20:49.045Z,25.36
2018-06-29T08:23:18.491Z,25.39
2018-06-29T08:25:47.941Z,25.46
2018-06-29T08:28:18.200Z,25.48
2018-06-29T08:30:47.628Z,25.40
2018-06-29T08:33:18.177Z,25.50
2018-06-29T08:35:47.711Z,25.52
2018-06-29T08:38:17.271Z,25.64
2018-06-29T08:40:47.543Z,25.66
2018-06-29T08:43:19.977Z,25.65
2018-06-29T08:45:52.367Z,25.68
2018-06-29T08:48:25.439Z,25.74
2018-06-29T08:50:56.416Z,25.85
2018-06-29T08:53:25.913Z,25.79
2018-06-29T08:55:58.311Z,25.79
2018-06-29T08:58:27.765Z,25.95
2018-06-29T09:00:58.780Z,25.94
2018-06-29T09:03:29.836Z,25.93
2018-06-29T09:05:59.282Z,25.86
2018-06-29T09:08:28.780Z,26.05
2018-06-29T09:10:58.308Z,26.06
2018-06-29T09:13:30.648Z,26.04
2018-06-29T09:16:00.124Z,26.10
2018-06-29T09:18:29.568Z,26.14
2018-06-29T09:20:59.012Z,26.20
2018-06-29T09:23:31.476Z,26.29
2018-06-29T09:26:00.928Z,26.27
2018-06-29T09:28:30.388Z,26.26
2018-06-29T09:30:59.838Z,26.38
2018-06-29T09:33:29.288Z,26.38
2018-06-29T09:35:58.749Z,26.42
2018-06-29T09:38:28.237Z,26.39
2018-06-29T09:40:57.685Z,26.42
2018-06-29T09:43:27.713Z,26.32
2018-06-29T09:45:57.801Z,26.41
2018-06-29T09:48:28.045Z,26.46
2018-06-29T09:50:58.241Z,26.57
2018-06-29T09:53:29.880Z,26.56
2018-06-29T09:56:00.211Z,26.63
2018-06-29T09:58:32.684Z,26.54
2018-06-29T10:01:04.770Z,26.64
2018-06-29T10:03:35.801Z,26.62
2018-06-29T10:06:08.248Z,26.65
2018-06-29T10:08:39.000Z,26.62
2018-06-29T10:11:08.517Z,26.79
2018-06-29T10:13:41.509Z,26.71
2018-06-29T10:16:11.035Z,26.90
2018-06-29T10:18:40.480Z,26.85
2018-06-29T10:21:09.929Z,26.91
2018-06-29T10:23:42.315Z,27.09
2018-06-29T10:26:14.122Z,26.94
2018-06-29T10:28:43.589Z,26.86
2018-06-29T10:31:16.024Z,27.08
2018-06-29T10:33:45.497Z,27.14
2018-06-29T10:36:15.781Z,27.36
2018-06-29T10:38:45.313Z,27.18
2018-06-29T10:41:14.701Z,27.17
2018-06-29T10:43:44.161Z,27.35
2018-06-29T10:46:13.611Z,27.41
2018-06-29T10:48:44.664Z,27.30
2018-06-29T10:51:17.043Z,27.47
2018-06-29T10:53:47.280Z,27.39
2018-06-29T10:56:18.615Z,27.52
2018-06-29T10:58:48.094Z,27.54
2018-06-29T11:01:17.533Z,27.54
2018-06-29T11:03:47.960Z,27.50
2018-06-29T11:06:20.444Z,27.61
2018-06-29T11:08:49.912Z,27.51
2018-06-29T11:11:19.407Z,27.53
2018-06-29T11:13:48.833Z,27.56
2018-06-29T11:16:18.284Z,27.80
2018-06-29T11:18:48.604Z,27.70
2018-06-29T11:21:18.074Z,27.72
2018-06-29T11:23:51.408Z,27.76
2018-06-29T11:26:20.946Z,27.91
2018-06-29T11:28:53.332Z,27.94
2018-06-29T11:31:22.780Z,28.01
2018-06-29T11:33:55.204Z,27.96
2018-06-29T11:36:25.421Z,27.98
2018-06-29T11:38:58.000Z,27.92
2018-06-29T11:41:30.395Z,28.07
2018-06-29T11:44:01.487Z,28.34
2018-06-29T11:46:33.904Z,28.16
2018-06-29T11:49:06.385Z,28.24
2018-06-29T11:51:35.829Z,28.26
2018-06-29T11:54:06.113Z,28.32
2018-06-29T11:56:35.737Z,28.46
2018-06-29T11:59:05.987Z,28.51
2018-06-29T12:01:35.403Z,28.37
2018-06-29T12:04:04.976Z,28.66
2018-06-29T12:06:34.476Z,28.48
2018-06-29T12:09:05.210Z,28.63
2018-06-29T12:11:34.640Z,28.84
2018-06-29T12:14:04.864Z,28.77
2018-06-29T12:16:34.348Z,28.55
2018-06-29T12:19:05.823Z,28.64
2018-06-29T12:21:36.261Z,28.64
2018-06-29T12:24:05.671Z,28.89
2018-06-29T12:26:35.147Z,29.04
2018-06-29T12:29:04.768Z,28.87
2018-06-29T12:31:34.265Z,28.87
2018-06-29T12:34:04.451Z,28.82
2018-06-29T12:36:33.933Z,28.93
2018-06-29T12:39:04.800Z,29.02
2018-06-29T12:41:34.772Z,29.05
2018-06-29T12:44:04.700Z,29.30
2018-06-29T12:46:34.160Z,29.18
2018-06-29T12:49:05.184Z,29.18
2018-06-29T12:51:34.659Z,29.45
2018-06-29T12:54:07.117Z,29.11
2018-06-29T12:56:39.621Z,29.19
2018-06-29T12:59:11.405Z,29.08
2018-06-29T13:01:41.624Z,29.33
2018-06-29T13:04:11.310Z,29.49
2018-06-29T13:06:40.596Z,29.78
2018-06-29T13:09:10.064Z,29.42
2018-06-29T13:11:39.506Z,29.68
2018-06-29T13:14:09.003Z,29.50
2018-06-29T13:16:41.329Z,29.50
2018-06-29T13:19:10.804Z,29.64
2018-06-29T13:21:40.260Z,29.60
2018-06-29T13:24:09.710Z,29.66
2018-06-29T13:26:40.233Z,29.66
2018-06-29T13:29:09.697Z,29.81
2018-06-29T13:31:39.148Z,29.98
2018-06-29T13:34:08.646Z,29.82
2018-06-29T13:36:38.132Z,29.93
2018-06-29T13:39:07.575Z,29.92
2018-06-29T13:41:37.018Z,29.84
2018-06-29T13:44:06.522Z,30.04
2018-06-29T13:46:35.956Z,29.86
2018-06-29T13:49:05.387Z,29.87
2018-06-29T13:51:34.824Z,30.12
2018-06-29T13:54:07.252Z,30.21
2018-06-29T13:56:36.680Z,30.45
2018-06-29T13:59:06.224Z,30.17
2018-06-29T14:01:35.862Z,30.09
2018-06-29T14:04:06.156Z,30.26
2018-06-29T14:06:35.683Z,30.19
2018-06-29T14:09:05.130Z,30.45
2018-06-29T14:11:35.242Z,30.35
2018-06-29T14:14:07.709Z,30.47
2018-06-29T14:16:39.468Z,30.44
2018-06-29T14:19:09.101Z,30.69
2018-06-29T14:21:41.529Z,30.71
2018-06-29T14:24:10.998Z,30.46
2018-06-29T14:26:43.444Z,30.70
2018-06-29T14:29:13.675Z,30.72
2018-06-29T14:31:43.138Z,30.68
2018-06-29T14:34:12.589Z,30.68
2018-06-29T14:36:43.580Z,30.66
2018-06-29T14:39:14.637Z,30.86
2018-06-29T14:41:44.091Z,30.65
2018-06-29T14:44:16.478Z,30.69
2018-06-29T14:46:48.255Z,30.77
2018-06-29T14:49:19.432Z,30.77
2018-06-29T14:51:51.844Z,30.88
2018-06-29T14:54:24.264Z,30.89
2018-06-29T14:56:55.272Z,30.75
2018-06-29T14:59:29.871Z,30.92
2018-06-29T15:02:00.870Z,30.95
2018-06-29T15:04:30.324Z,31.06
2018-06-29T15:06:59.796Z,31.36
2018-06-29T15:09:29.279Z,31.29
2018-06-29T15:12:00.237Z,31.56
2018-06-29T15:14:32.696Z,31.70
2018-06-29T15:17:05.152Z,31.75
2018-06-29T15:19:37.640Z,31.62
2018-06-29T15:22:07.856Z,31.77
2018-06-29T15:24:40.332Z,31.97
2018-06-29T15:27:10.758Z,31.96
2018-06-29T15:29:43.177Z,31.84
2018-06-29T15:32:12.629Z,31.46
2018-06-29T15:34:42.868Z,31.74
2018-06-29T15:37:15.245Z,31.61
2018-06-29T15:39:47.673Z,31.54
2018-06-29T15:42:20.110Z,31.69
2018-06-29T15:44:52.759Z,31.53
2018-06-29T15:47:22.245Z,31.64
2018-06-29T15:49:51.681Z,31.59
2018-06-29T15:52:21.920Z,31.78
2018-06-29T15:54:54.316Z,31.64
2018-06-29T15:57:24.402Z,31.75
2018-06-29T15:59:55.422Z,31.50
2018-06-29T16:02:27.833Z,31.87
2018-06-29T16:04:58.076Z,31.81
2018-06-29T16:07:31.932Z,31.72
2018-06-29T16:10:01.425Z,31.82
2018-06-29T16:12:33.233Z,32.02
2018-06-29T16:15:05.658Z,31.87
2018-06-29T16:17:35.114Z,31.86
2018-06-29T16:20:07.529Z,31.77
2018-06-29T16:22:37.854Z,31.79
2018-06-29T16:25:08.101Z,31.83
2018-06-29T16:27:40.529Z,31.93
2018-06-29T16:30:12.970Z,31.84
2018-06-29T16:32:45.390Z,31.91
2018-06-29T16:35:17.772Z,31.88
2018-06-29T16:37:47.358Z,31.83
2018-06-29T16:40:19.816Z,31.81
2018-06-29T16:42:49.279Z,31.73
2018-06-29T16:45:22.678Z,32.00
2018-06-29T16:47:56.665Z,31.92
2018-06-29T16:50:29.191Z,31.95
2018-06-29T16:52:59.619Z,31.80
2018-06-29T16:55:32.091Z,31.94
2018-06-29T16:58:02.410Z,31.45
2018-06-29T17:00:34.991Z,31.12
2018-06-29T17:03:07.466Z,31.07
2018-06-29T17:05:37.711Z,31.32
2018-06-29T17:08:10.162Z,30.99
2018-06-29T17:10:42.593Z,31.11
2018-06-29T17:13:12.069Z,30.76
2018-06-29T17:15:45.057Z,30.81
2018-06-29T17:18:16.210Z,30.73
2018-06-29T17:20:48.766Z,30.66
2018-06-29T17:23:21.190Z,30.31
2018-06-29T17:25:53.689Z,30.41
2018-06-29T17:28:26.789Z,30.40
2018-06-29T17:30:59.381Z,30.48
2018-06-29T17:33:32.414Z,30.19
2018-06-29T17:36:01.457Z,30.16
2018-06-29T17:38:34.844Z,30.12
2018-06-29T17:41:04.438Z,30.10
2018-06-29T17:43:36.985Z,29.93
2018-06-29T17:46:09.540Z,29.89
2018-06-29T17:48:39.060Z,29.93
2018-06-29T17:51:11.455Z,29.97
2018-06-29T17:53:42.540Z,30.05
2018-06-29T17:56:12.010Z,29.92
2018-06-29T17:58:47.412Z,29.86
2018-06-29T18:01:20.812Z,30.10
2018-06-29T18:03:53.295Z,30.05
2018-06-29T18:06:25.970Z,29.94
2018-06-29T18:08:55.565Z,30.06
2018-06-29T18:11:28.228Z,30.15
2018-06-29T18:13:58.216Z,30.41
2018-06-29T18:16:27.778Z,30.33
2018-06-29T18:18:57.770Z,30.45
2018-06-29T18:21:27.982Z,30.60
2018-06-29T18:23:57.485Z,30.46
2018-06-29T18:26:28.541Z,30.54
2018-06-29T18:29:01.161Z,30.56
2018-06-29T18:31:31.667Z,30.50
2018-06-29T18:34:02.751Z,30.49
2018-06-29T18:36:35.174Z,30.56
2018-06-29T18:39:05.310Z,30.50
2018-06-29T18:41:36.838Z,30.51
2018-06-29T18:44:07.851Z,30.50
2018-06-29T18:46:38.109Z,30.32
2018-06-29T18:49:10.517Z,30.38
2018-06-29T18:51:39.980Z,30.50
2018-06-29T18:54:12.440Z,30.35
2018-06-29T18:56:44.849Z,30.50
2018-06-29T18:59:17.401Z,30.44
2018-06-29T19:01:49.905Z,30.36
2018-06-29T19:04:23.481Z,30.40
2018-06-29T19:06:53.060Z,30.39
2018-06-29T19:09:25.480Z,30.48
2018-06-29T19:11:57.038Z,30.36
2018-06-29T19:14:27.300Z,30.41
2018-06-29T19:16:59.843Z,30.20
2018-06-29T19:19:29.387Z,30.33
2018-06-29T19:22:01.829Z,30.33
2018-06-29T19:24:31.648Z,30.29
2018-06-29T19:27:02.678Z,30.22
2018-06-29T19:29:35.055Z,30.22
2018-06-29T19:32:05.430Z,30.22
2018-06-29T19:34:37.853Z,30.21
2018-06-29T19:37:09.695Z,30.16
2018-06-29T19:39:42.084Z,30.13
2018-06-29T19:42:14.525Z,30.14
2018-06-29T19:44:45.049Z,30.11
2018-06-29T19:47:15.496Z,30.12
2018-06-29T19:49:45.005Z,30.06
2018-06-29T19:52:15.276Z,29.95
2018-06-29T19:54:44.840Z,30.06
2018-06-29T19:57:15.202Z,29.81
2018-06-29T19:59:47.620Z,29.89
2018-06-29T20:02:17.861Z,29.80
2018-06-29T20:04:50.377Z,29.78
2018-06-29T20:07:19.776Z,29.72
2018-06-29T20:09:51.571Z,29.60
2018-06-29T20:12:23.994Z,29.70
2018-06-29T20:14:53.447Z,29.55
2018-06-29T20:17:25.878Z,29.51
2018-06-29T20:19:55.348Z,29.45
2018-06-29T20:22:27.803Z,29.48
2018-06-29T20:24:57.372Z,29.39
2018-06-29T20:27:27.788Z,29.44
2018-06-29T20:30:00.192Z,29.39
2018-06-29T20:32:30.449Z,29.28
2018-06-29T20:35:03.018Z,29.28
2018-06-29T20:37:32.624Z,29.14
2018-06-29T20:40:05.050Z,29.26
2018-06-29T20:42:37.493Z,29.15
2018-06-29T20:45:10.048Z,29.14
2018-06-29T20:47:39.492Z,29.12
2018-06-29T20:50:11.973Z,29.07
2018-06-29T20:52:41.472Z,29.09
2018-06-29T20:55:10.932Z,29.05
2018-06-29T20:57:41.182Z,29.00
2018-06-29T21:00:14.283Z,28.91
2018-06-29T21:02:46.814Z,28.91
2018-06-29T21:05:19.241Z,28.83
2018-06-29T21:07:51.737Z,28.83
2018-06-29T21:10:21.227Z,28.78
2018-06-29T21:12:53.050Z,28.80
2018-06-29T21:15:25.491Z,28.67
2018-06-29T21:17:55.214Z,28.68
2018-06-29T21:20:27.553Z,28.62
2018-06-29T21:22:57.074Z,28.63
2018-06-29T21:25:30.279Z,28.56
2018-06-29T21:28:01.090Z,28.60
2018-06-29T21:30:31.756Z,28.49
2018-06-29T21:33:01.487Z,28.49
2018-06-29T21:35:30.933Z,28.46
2018-06-29T21:38:00.624Z,28.41
2018-06-29T21:40:30.105Z,28.38
2018-06-29T21:43:02.509Z,28.33
2018-06-29T21:45:31.976Z,28.37
2018-06-29T21:48:05.023Z,28.15
2018-06-29T21:50:35.327Z,28.16
2018-06-29T21:53:05.559Z,28.16
2018-06-29T21:55:37.945Z,28.14
2018-06-29T21:58:09.767Z,27.97
2018-06-29T22:00:41.160Z,27.63
2018-06-29T22:03:13.576Z,27.99
2018-06-29T22:05:43.842Z,27.74
2018-06-29T22:08:16.401Z,27.69
2018-06-29T22:10:45.843Z,27.84
2018-06-29T22:13:18.280Z,27.77
2018-06-29T22:15:47.731Z,27.84
2018-06-29T22:18:18.190Z,27.56
2018-06-29T22:20:50.795Z,27.65
2018-06-29T22:23:20.413Z,27.73
2018-06-29T22:25:52.819Z,27.75
2018-06-29T22:28:22.273Z,27.60
2018-06-29T22:30:54.670Z,27.72
2018-06-29T22:33:24.294Z,27.56
2018-06-29T22:35:55.348Z,27.58
2018-06-29T22:38:27.804Z,27.53
2018-06-29T22:40:57.313Z,27.51
2018-06-29T22:43:29.798Z,27.65
2018-06-29T22:45:59.253Z,27.62
2018-06-29T22:48:29.617Z,28.13
2018-06-29T22:50:59.641Z,28.05
2018-06-29T22:53:30.613Z,27.92
2018-06-29T22:56:00.069Z,27.87
2018-06-29T22:58:29.615Z,27.78
2018-06-29T23:01:02.006Z,27.88
2018-06-29T23:03:52.472Z,27.77
2018-06-29T23:06:24.253Z,27.66
2018-06-29T23:08:56.701Z,27.72
2018-06-29T23:11:26.949Z,27.60
2018-06-29T23:13:57.961Z,27.28
2018-06-29T23:16:30.362Z,27.45
2018-06-29T23:19:00.596Z,27.43
2018-06-29T23:21:31.592Z,27.53
2018-06-29T23:24:01.068Z,27.13
2018-06-29T23:26:33.519Z,27.33
2018-06-29T23:29:05.926Z,27.21
2018-06-29T23:31:35.355Z,27.20
2018-06-29T23:34:07.753Z,27.17
2018-06-29T23:36:40.972Z,27.16
2018-06-29T23:39:12.773Z,27.25
2018-06-29T23:41:45.180Z,27.15
2018-06-29T23:44:17.576Z,27.13
2018-06-29T23:46:50.657Z,27.19
2018-06-29T23:49:23.041Z,27.11
2018-06-29T23:51:52.546Z,27.04
2018-06-29T23:54:22.754Z,26.96
2018-06-29T23:56:55.196Z,26.95
2018-06-29T23:59:25.460Z,26.95
